createdAt,value
2023-02-10T00:03:17.301Z,66.49
2023-02-10T00:08:18.570Z,66.31
2023-02-10T00:13:19.842Z,65.71
2023-02-10T00:18:21.143Z,66.44
2023-02-10T00:23:22.398Z,65.48
2023-02-10T00:28:23.641Z,65.08
2023-02-10T00:33:24.997Z,66.43
2023-02-10T00:38:26.210Z,65.93
2023-02-10T00:43:27.419Z,66.32
2023-02-10T00:48:28.884Z,65.80
2023-02-10T00:53:30.185Z,66.23
2023-02-10T00:58:31.568Z,66.39
2023-02-10T01:03:32.853Z,66.50
2023-02-10T01:08:34.100Z,65.74
2023-02-10T01:13:35.324Z,66.54
2023-02-10T01:18:36.551Z,67.29
2023-02-10T01:23:37.927Z,66.52
2023-02-10T01:28:39.145Z,67.30
2023-02-10T01:33:40.511Z,67.50
2023-02-10T01:38:42.706Z,67.97
2023-02-10T01:43:43.967Z,66.92
2023-02-10T01:48:45.217Z,66.13
2023-02-10T01:53:46.439Z,67.23
2023-02-10T01:58:47.679Z,68.28
2023-02-10T02:03:48.952Z,68.44
2023-02-10T02:08:50.183Z,68.77
2023-02-10T02:13:51.630Z,68.24
2023-02-10T02:18:52.918Z,68.44
2023-02-10T02:23:54.187Z,68.14
2023-02-10T02:28:55.444Z,68.90
2023-02-10T02:33:56.730Z,69.04
2023-02-10T02:38:57.939Z,67.94
2023-02-10T02:43:59.134Z,68.30
2023-02-10T02:49:00.384Z,67.26
2023-02-10T02:54:01.722Z,66.46
2023-02-10T02:59:02.975Z,66.32
2023-02-10T03:04:04.257Z,65.99
2023-02-10T03:09:05.530Z,65.34
2023-02-10T03:14:06.728Z,65.74
2023-02-10T03:19:07.976Z,65.89
2023-02-10T03:24:10.216Z,66.84
2023-02-10T03:29:11.493Z,67.91
2023-02-10T03:34:12.797Z,67.93
2023-02-10T03:39:14.274Z,67.33
2023-02-10T03:44:15.522Z,66.62
2023-02-10T03:49:16.818Z,66.61
2023-02-10T03:54:18.071Z,66.65
2023-02-10T03:59:19.338Z,66.40
2023-02-10T04:04:20.604Z,67.22
2023-02-10T04:09:21.921Z,67.57
2023-02-10T04:14:23.442Z,67.55
2023-02-10T04:19:24.730Z,66.58
2023-02-10T04:24:25.961Z,66.64
2023-02-10T04:29:27.204Z,66.62
2023-02-10T04:34:28.433Z,65.71
2023-02-10T04:39:29.655Z,65.37
2023-02-10T04:44:30.917Z,65.95
2023-02-10T04:49:32.116Z,66.10
2023-02-10T04:54:33.384Z,65.44
2023-02-10T04:59:34.672Z,65.50
2023-02-10T05:04:35.895Z,65.50
2023-02-10T05:09:37.149Z,65.16
2023-02-10T05:14:38.368Z,65.72
2023-02-10T05:19:39.585Z,65.56
2023-02-10T05:24:40.859Z,65.85
2023-02-10T05:29:42.120Z,66.17
2023-02-10T05:34:43.461Z,66.05
2023-02-10T05:39:44.692Z,66.13
2023-02-10T05:44:46.137Z,65.99
2023-02-10T05:49:47.465Z,66.77
2023-02-10T05:54:48.776Z,65.87
2023-02-10T05:59:49.970Z,65.90
2023-02-10T06:04:51.236Z,67.12
2023-02-10T06:09:52.447Z,67.34
2023-02-10T06:14:53.762Z,66.76
2023-02-10T06:19:54.994Z,65.34
2023-02-10T06:24:58.367Z,64.73
2023-02-10T06:29:59.771Z,65.87
2023-02-10T06:35:01.017Z,66.35
2023-02-10T06:40:02.432Z,65.49
2023-02-10T06:45:03.753Z,65.15
2023-02-10T06:50:04.972Z,65.67
2023-02-10T06:55:06.316Z,66.00
2023-02-10T07:00:08.750Z,65.53
2023-02-10T07:05:10.093Z,65.85
2023-02-10T07:10:12.278Z,65.44
2023-02-10T07:15:13.571Z,66.78
2023-02-10T07:20:14.786Z,65.84
2023-02-10T07:25:15.988Z,66.43
2023-02-10T07:30:17.323Z,66.92
2023-02-10T07:35:18.601Z,67.49
2023-02-10T07:40:20.078Z,67.09
2023-02-10T07:45:21.408Z,65.13
2023-02-10T07:50:22.979Z,62.84
2023-02-10T07:55:54.984Z,62.42
2023-02-10T08:00:54.712Z,63.22
2023-02-10T08:05:56.288Z,64.21
2023-02-10T08:10:58.114Z,65.32
2023-02-10T08:15:59.435Z,65.65
2023-02-10T08:21:00.818Z,66.11
2023-02-10T08:26:02.100Z,66.40
2023-02-10T08:31:03.537Z,69.05
2023-02-10T08:36:04.813Z,68.95
2023-02-10T08:41:06.083Z,70.69
2023-02-10T08:46:07.461Z,72.23
2023-02-10T08:51:08.793Z,71.31
2023-02-10T08:56:10.064Z,70.49
2023-02-10T09:01:11.374Z,70.15
2023-02-10T09:06:13.444Z,68.62
2023-02-10T09:11:14.683Z,69.71
2023-02-10T09:16:16.016Z,69.88
2023-02-10T09:21:17.399Z,68.26
2023-02-10T09:26:18.619Z,68.19
2023-02-10T09:31:19.992Z,68.56
2023-02-10T09:36:21.323Z,68.43
2023-02-10T09:41:22.585Z,67.78
2023-02-10T09:46:23.798Z,67.53
2023-02-10T09:51:25.059Z,68.14
2023-02-10T09:56:26.813Z,66.80
2023-02-10T10:01:28.216Z,66.18
2023-02-10T10:06:29.604Z,65.31
2023-02-10T10:11:30.988Z,64.56
2023-02-10T10:16:32.250Z,62.96
2023-02-10T10:21:33.526Z,62.78
2023-02-10T10:26:37.376Z,61.30
2023-02-10T10:31:38.697Z,60.10
2023-02-10T10:36:40.097Z,59.89
2023-02-10T10:41:42.811Z,59.27
2023-02-10T10:46:44.054Z,59.65
2023-02-10T10:51:48.800Z,59.14
2023-02-10T10:56:50.088Z,56.89
2023-02-10T11:01:53.712Z,56.59
2023-02-10T11:06:55.278Z,55.83
2023-02-10T11:11:56.499Z,55.29
2023-02-10T11:16:58.491Z,53.71
2023-02-10T11:21:59.769Z,53.50
2023-02-10T11:27:01.116Z,53.62
2023-02-10T11:32:02.597Z,52.99
2023-02-10T11:37:03.909Z,50.67
2023-02-10T11:42:05.206Z,49.84
2023-02-10T11:47:08.037Z,50.44
2023-02-10T11:52:09.425Z,49.61
2023-02-10T11:57:29.587Z,48.93
2023-02-10T12:02:42.998Z,47.81
2023-02-10T12:07:44.473Z,47.86
2023-02-10T12:12:48.420Z,46.64
2023-02-10T12:17:49.803Z,45.18
2023-02-10T12:22:51.173Z,47.89
2023-02-10T12:27:52.643Z,47.06
2023-02-10T12:32:53.924Z,49.03
2023-02-10T12:37:55.147Z,49.40
2023-02-10T12:42:56.344Z,49.09
2023-02-10T12:47:57.578Z,47.18
2023-02-10T12:52:58.888Z,45.83
2023-02-10T12:58:00.452Z,44.78
2023-02-10T13:03:01.805Z,44.33
2023-02-10T13:08:03.189Z,43.29
2023-02-10T13:13:06.634Z,41.97
2023-02-10T13:18:08.000Z,42.67
2023-02-10T13:23:09.387Z,41.61
2023-02-10T13:28:10.764Z,41.29
2023-02-10T13:33:12.203Z,40.59
2023-02-10T13:38:13.534Z,40.29
2023-02-10T13:43:21.259Z,40.12
2023-02-10T13:48:28.779Z,38.97
2023-02-10T13:53:30.165Z,38.93
2023-02-10T13:58:31.492Z,39.75
2023-02-10T14:03:32.765Z,40.04
2023-02-10T14:08:34.195Z,39.67
2023-02-10T14:13:35.568Z,39.71
2023-02-10T14:18:36.977Z,39.58
2023-02-10T14:23:38.323Z,39.97
2023-02-10T14:28:39.548Z,40.64
2023-02-10T14:33:40.784Z,41.16
2023-02-10T14:38:42.862Z,41.92
2023-02-10T14:43:44.145Z,42.26
2023-02-10T14:48:45.400Z,43.01
2023-02-10T14:53:46.677Z,42.93
2023-02-10T14:58:48.034Z,42.43
2023-02-10T15:03:49.326Z,43.25
2023-02-10T15:08:51.097Z,42.33
2023-02-10T15:13:52.485Z,42.10
2023-02-10T15:18:54.401Z,42.97
2023-02-10T15:23:56.227Z,43.86
2023-02-10T15:28:57.634Z,44.63
2023-02-10T15:33:59.082Z,47.22
2023-02-10T15:44:18.960Z,50.02
2023-02-10T15:49:20.606Z,50.01
2023-02-10T15:54:22.080Z,49.28
2023-02-10T15:59:28.500Z,49.30
2023-02-10T16:04:36.387Z,51.76
2023-02-10T16:09:37.857Z,52.94
2023-02-10T16:14:39.169Z,53.57
2023-02-10T16:19:40.444Z,53.34
2023-02-10T16:24:41.724Z,54.59
2023-02-10T16:29:55.021Z,56.27
2023-02-10T16:34:56.488Z,56.15
2023-02-10T16:45:24.052Z,57.80
2023-02-10T16:50:25.628Z,57.08
2023-02-10T16:55:50.345Z,57.92
2023-02-10T17:00:52.323Z,59.28
2023-02-10T17:05:54.820Z,59.54
2023-02-10T17:10:56.308Z,59.14
2023-02-10T17:15:57.820Z,59.23
2023-02-10T17:20:59.246Z,60.08
2023-02-10T17:26:03.663Z,59.88
2023-02-10T17:31:05.730Z,60.46
2023-02-10T17:36:07.344Z,61.01
2023-02-10T17:46:30.126Z,60.71
2023-02-10T17:51:32.418Z,59.54
2023-02-10T17:56:43.521Z,60.35
2023-02-10T18:01:48.318Z,59.98
2023-02-10T18:06:50.049Z,59.77
2023-02-10T18:12:23.318Z,59.93
2023-02-10T18:17:27.887Z,60.65
2023-02-10T18:22:33.272Z,60.69
2023-02-10T18:27:34.653Z,62.45
2023-02-10T18:32:36.270Z,61.85
2023-02-10T18:37:39.463Z,61.96
2023-02-10T18:42:40.727Z,62.45
2023-02-10T18:47:42.025Z,63.41
2023-02-10T18:52:43.401Z,61.85
2023-02-10T18:57:44.614Z,61.74
2023-02-10T19:02:45.841Z,61.62
2023-02-10T19:07:47.149Z,62.14
2023-02-10T19:12:48.450Z,63.17
2023-02-10T19:17:49.765Z,62.68
2023-02-10T19:28:09.965Z,63.43
2023-02-10T19:33:11.203Z,63.02
2023-02-10T19:38:12.595Z,63.00
2023-02-10T19:43:13.901Z,62.71
2023-02-10T19:48:15.116Z,63.16
2023-02-10T19:53:18.516Z,63.29
2023-02-10T19:58:19.802Z,63.10
2023-02-10T20:03:21.112Z,63.53
2023-02-10T20:08:22.374Z,64.02
2023-02-10T20:13:23.607Z,63.58
2023-02-10T20:18:24.851Z,63.89
2023-02-10T20:23:26.088Z,63.88
2023-02-10T20:28:27.400Z,64.19
2023-02-10T20:33:28.695Z,64.46
2023-02-10T20:38:30.066Z,64.51
2023-02-10T20:43:31.381Z,65.45
2023-02-10T20:48:32.724Z,66.19
2023-02-10T20:53:34.028Z,65.93
2023-02-10T20:58:35.283Z,65.15
2023-02-10T21:03:36.590Z,65.83
2023-02-10T21:08:38.374Z,66.62
2023-02-10T21:13:41.135Z,66.73
2023-02-10T21:18:42.628Z,65.54
2023-02-10T21:23:43.926Z,65.12
2023-02-10T21:28:45.230Z,65.90
2023-02-10T21:33:48.939Z,65.50
2023-02-10T21:38:50.237Z,64.83
2023-02-10T21:43:51.478Z,65.47
2023-02-10T21:48:52.753Z,66.47
2023-02-10T21:53:53.977Z,65.99
2023-02-10T21:58:55.299Z,65.73
2023-02-10T22:03:56.612Z,65.74
2023-02-10T22:08:57.870Z,65.53
2023-02-10T22:14:02.295Z,65.94
2023-02-10T22:19:03.608Z,65.44
2023-02-10T22:24:14.701Z,65.08
2023-02-10T22:29:16.052Z,65.38
2023-02-10T22:34:17.425Z,65.00
2023-02-10T22:39:18.848Z,64.98
2023-02-10T22:44:20.087Z,65.35
2023-02-10T22:49:21.394Z,65.37
2023-02-10T22:54:22.688Z,65.28
2023-02-10T22:59:23.962Z,65.24
2023-02-10T23:04:27.241Z,64.39
2023-02-10T23:09:28.568Z,64.68
2023-02-10T23:14:30.463Z,65.87
2023-02-10T23:19:31.763Z,65.29
2023-02-10T23:24:34.174Z,65.75
2023-02-10T23:29:35.458Z,65.42
2023-02-10T23:34:36.728Z,65.87
2023-02-10T23:39:38.233Z,65.65
2023-02-10T23:44:39.471Z,65.33
2023-02-10T23:49:40.797Z,66.55
2023-02-10T23:54:42.032Z,65.59
2023-02-10T23:59:43.273Z,65.88
